sensor_id;sensor_type;location;lat;lon;timestamp;pressure;altitude;pressure_sealevel;temperature;humidity
34696;BME280;75243;51.138;17.370;2024-02-28T00:00:00;100190.48;;;6.62;96.00
34696;BME280;75243;51.138;17.370;2024-02-28T00:03:00;100188.02;;;6.67;95.94
34696;BME280;75243;51.138;17.370;2024-02-28T00:06:01;100184.45;;;6.68;95.85
34696;BME280;75243;51.138;17.370;2024-02-28T00:09:01;100187.26;;;6.68;95.69
34696;BME280;75243;51.138;17.370;2024-02-28T00:12:02;100187.74;;;6.70;95.77
34696;BME280;75243;51.138;17.370;2024-02-28T00:15:07;100190.74;;;6.70;95.82
34696;BME280;75243;51.138;17.370;2024-02-28T00:18:11;100188.80;;;6.72;95.80
34696;BME280;75243;51.138;17.370;2024-02-28T00:21:11;100193.20;;;6.72;95.91
34696;BME280;75243;51.138;17.370;2024-02-28T00:24:12;100198.27;;;6.67;95.65
34696;BME280;75243;51.138;17.370;2024-02-28T00:27:12;100203.15;;;6.65;95.85
34696;BME280;75243;51.138;17.370;2024-02-28T00:30:13;100202.13;;;6.61;95.94
34696;BME280;75243;51.138;17.370;2024-02-28T00:33:14;100207.56;;;6.57;95.94
34696;BME280;75243;51.138;17.370;2024-02-28T00:36:14;100207.42;;;6.51;95.90
34696;BME280;75243;51.138;17.370;2024-02-28T00:39:17;100205.47;;;6.47;96.04
34696;BME280;75243;51.138;17.370;2024-02-28T00:42:18;100210.73;;;6.44;95.94
34696;BME280;75243;51.138;17.370;2024-02-28T00:45:18;100208.77;;;6.40;96.29
34696;BME280;75243;51.138;17.370;2024-02-28T00:48:19;100209.42;;;6.39;96.33
34696;BME280;75243;51.138;17.370;2024-02-28T00:51:19;100207.45;;;6.43;96.49
34696;BME280;75243;51.138;17.370;2024-02-28T00:54:20;100208.42;;;6.44;96.61
34696;BME280;75243;51.138;17.370;2024-02-28T00:57:22;100203.54;;;6.44;96.38
34696;BME280;75243;51.138;17.370;2024-02-28T01:00:22;100199.33;;;6.45;96.67
34696;BME280;75243;51.138;17.370;2024-02-28T01:03:23;100201.71;;;6.46;96.73
34696;BME280;75243;51.138;17.370;2024-02-28T01:06:24;100199.30;;;6.49;96.77
34696;BME280;75243;51.138;17.370;2024-02-28T01:09:24;100200.13;;;6.50;96.63
34696;BME280;75243;51.138;17.370;2024-02-28T01:12:25;100207.14;;;6.52;96.86
34696;BME280;75243;51.138;17.370;2024-02-28T01:15:25;100207.09;;;6.51;96.78
34696;BME280;75243;51.138;17.370;2024-02-28T01:18:26;100209.52;;;6.53;96.94
34696;BME280;75243;51.138;17.370;2024-02-28T01:21:28;100213.33;;;6.60;97.21
34696;BME280;75243;51.138;17.370;2024-02-28T01:24:29;100208.84;;;6.67;97.19
34696;BME280;75243;51.138;17.370;2024-02-28T01:27:29;100208.81;;;6.68;97.04
34696;BME280;75243;51.138;17.370;2024-02-28T01:30:30;100208.76;;;6.69;97.01
34696;BME280;75243;51.138;17.370;2024-02-28T01:33:30;100207.30;;;6.68;96.87
34696;BME280;75243;51.138;17.370;2024-02-28T01:36:31;100205.83;;;6.69;97.01
34696;BME280;75243;51.138;17.370;2024-02-28T01:39:31;100205.52;;;6.68;96.96
34696;BME280;75243;51.138;17.370;2024-02-28T01:42:32;100207.40;;;6.67;96.71
34696;BME280;75243;51.138;17.370;2024-02-28T01:45:32;100205.32;;;6.63;96.75
34696;BME280;75243;51.138;17.370;2024-02-28T01:48:33;100206.59;;;6.62;97.03
34696;BME280;75243;51.138;17.370;2024-02-28T01:51:33;100204.69;;;6.66;97.11
34696;BME280;75243;51.138;17.370;2024-02-28T01:54:35;100201.98;;;6.65;97.03
34696;BME280;75243;51.138;17.370;2024-02-28T01:57:36;100196.60;;;6.66;97.10
34696;BME280;75243;51.138;17.370;2024-02-28T02:00:37;100196.73;;;6.66;97.23
34696;BME280;75243;51.138;17.370;2024-02-28T02:03:43;100195.89;;;6.70;97.28
34696;BME280;75243;51.138;17.370;2024-02-28T02:06:47;100192.16;;;6.72;97.18
34696;BME280;75243;51.138;17.370;2024-02-28T02:09:49;100194.46;;;6.76;97.32
34696;BME280;75243;51.138;17.370;2024-02-28T02:12:50;100191.69;;;6.78;97.25
34696;BME280;75243;51.138;17.370;2024-02-28T02:15:51;100194.15;;;6.77;97.13
34696;BME280;75243;51.138;17.370;2024-02-28T02:18:52;100189.50;;;6.74;97.21
34696;BME280;75243;51.138;17.370;2024-02-28T02:21:54;100192.11;;;6.72;96.95
34696;BME280;75243;51.138;17.370;2024-02-28T02:24:57;100191.89;;;6.73;97.17
34696;BME280;75243;51.138;17.370;2024-02-28T02:27:58;100188.55;;;6.73;97.23
34696;BME280;75243;51.138;17.370;2024-02-28T02:30:59;100189.96;;;6.73;97.34
34696;BME280;75243;51.138;17.370;2024-02-28T02:34:00;100187.11;;;6.73;97.26
34696;BME280;75243;51.138;17.370;2024-02-28T02:37:00;100182.42;;;6.73;97.30
34696;BME280;75243;51.138;17.370;2024-02-28T02:40:01;100187.81;;;6.73;97.28
34696;BME280;75243;51.138;17.370;2024-02-28T02:43:01;100186.23;;;6.78;97.38
34696;BME280;75243;51.138;17.370;2024-02-28T02:46:02;100182.73;;;6.83;97.88
34696;BME280;75243;51.138;17.370;2024-02-28T02:49:03;100180.40;;;6.89;97.63
34696;BME280;75243;51.138;17.370;2024-02-28T02:52:03;100178.55;;;6.92;97.54
34696;BME280;75243;51.138;17.370;2024-02-28T02:55:04;100177.80;;;6.94;97.62
34696;BME280;75243;51.138;17.370;2024-02-28T02:58:05;100177.02;;;6.97;97.83
34696;BME280;75243;51.138;17.370;2024-02-28T03:01:05;100175.97;;;7.01;97.60
34696;BME280;75243;51.138;17.370;2024-02-28T03:04:06;100176.77;;;7.04;97.73
34696;BME280;75243;51.138;17.370;2024-02-28T03:07:06;100181.17;;;7.04;97.45
34696;BME280;75243;51.138;17.370;2024-02-28T03:10:07;100182.71;;;7.02;97.37
34696;BME280;75243;51.138;17.370;2024-02-28T03:13:08;100182.55;;;7.04;97.46
34696;BME280;75243;51.138;17.370;2024-02-28T03:16:09;100187.26;;;7.03;97.32
34696;BME280;75243;51.138;17.370;2024-02-28T03:19:12;100183.77;;;6.98;97.05
34696;BME280;75243;51.138;17.370;2024-02-28T03:22:13;100189.84;;;6.97;97.18
34696;BME280;75243;51.138;17.370;2024-02-28T03:25:13;100192.41;;;6.98;97.34
34696;BME280;75243;51.138;17.370;2024-02-28T03:28:14;100196.54;;;6.97;97.06
34696;BME280;75243;51.138;17.370;2024-02-28T03:31:14;100197.97;;;6.93;97.22
34696;BME280;75243;51.138;17.370;2024-02-28T03:34:15;100204.02;;;6.92;97.23
34696;BME280;75243;51.138;17.370;2024-02-28T03:37:15;100203.58;;;6.90;97.11
34696;BME280;75243;51.138;17.370;2024-02-28T03:40:16;100203.56;;;6.86;97.10
34696;BME280;75243;51.138;17.370;2024-02-28T03:43:16;100209.47;;;6.85;97.31
34696;BME280;75243;51.138;17.370;2024-02-28T03:46:17;100208.91;;;6.83;97.35
34696;BME280;75243;51.138;17.370;2024-02-28T03:49:17;100209.31;;;6.81;97.23
34696;BME280;75243;51.138;17.370;2024-02-28T03:52:18;100206.14;;;6.85;97.61
34696;BME280;75243;51.138;17.370;2024-02-28T03:55:18;100198.95;;;6.85;97.28
34696;BME280;75243;51.138;17.370;2024-02-28T03:58:19;100205.15;;;6.82;97.52
34696;BME280;75243;51.138;17.370;2024-02-28T04:01:22;100207.33;;;6.83;97.55
34696;BME280;75243;51.138;17.370;2024-02-28T04:04:23;100208.72;;;6.84;97.61
34696;BME280;75243;51.138;17.370;2024-02-28T04:07:23;100207.23;;;6.83;97.55
34696;BME280;75243;51.138;17.370;2024-02-28T04:10:24;100210.09;;;6.84;97.62
34696;BME280;75243;51.138;17.370;2024-02-28T04:13:27;100218.48;;;6.85;97.62
34696;BME280;75243;51.138;17.370;2024-02-28T04:16:30;100217.55;;;6.83;97.83
34696;BME280;75243;51.138;17.370;2024-02-28T04:19:34;100219.69;;;6.83;97.92
34696;BME280;75243;51.138;17.370;2024-02-28T04:22:37;100222.80;;;6.81;97.93
34696;BME280;75243;51.138;17.370;2024-02-28T04:25:38;100225.13;;;6.83;97.93
34696;BME280;75243;51.138;17.370;2024-02-28T04:28:42;100225.26;;;6.80;97.91
34696;BME280;75243;51.138;17.370;2024-02-28T04:31:46;100230.60;;;6.77;97.95
34696;BME280;75243;51.138;17.370;2024-02-28T04:34:46;100232.85;;;6.75;98.02
34696;BME280;75243;51.138;17.370;2024-02-28T04:37:47;100236.63;;;6.78;98.27
34696;BME280;75243;51.138;17.370;2024-02-28T04:40:50;100236.36;;;6.79;98.22
34696;BME280;75243;51.138;17.370;2024-02-28T04:43:50;100237.79;;;6.81;98.22
34696;BME280;75243;51.138;17.370;2024-02-28T04:46:51;100236.84;;;6.82;98.37
34696;BME280;75243;51.138;17.370;2024-02-28T04:49:51;100238.58;;;6.82;98.28
34696;BME280;75243;51.138;17.370;2024-02-28T04:52:52;100241.23;;;6.82;98.32
34696;BME280;75243;51.138;17.370;2024-02-28T04:55:52;100236.62;;;6.84;98.44
34696;BME280;75243;51.138;17.370;2024-02-28T04:58:53;100242.55;;;6.85;98.22
34696;BME280;75243;51.138;17.370;2024-02-28T05:01:53;100242.31;;;6.83;98.24
34696;BME280;75243;51.138;17.370;2024-02-28T05:04:54;100242.42;;;6.82;98.36
34696;BME280;75243;51.138;17.370;2024-02-28T05:07:55;100246.96;;;6.79;98.28
34696;BME280;75243;51.138;17.370;2024-02-28T05:10:55;100246.30;;;6.72;98.16
34696;BME280;75243;51.138;17.370;2024-02-28T05:13:56;100244.08;;;6.70;98.46
34696;BME280;75243;51.138;17.370;2024-02-28T05:16:56;100253.54;;;6.70;98.69
34696;BME280;75243;51.138;17.370;2024-02-28T05:19:57;100254.90;;;6.70;98.74
34696;BME280;75243;51.138;17.370;2024-02-28T05:22:58;100264.23;;;6.72;98.73
34696;BME280;75243;51.138;17.370;2024-02-28T05:25:59;100262.39;;;6.69;98.73
34696;BME280;75243;51.138;17.370;2024-02-28T05:29:07;100265.16;;;6.64;98.73
34696;BME280;75243;51.138;17.370;2024-02-28T05:32:08;100271.77;;;6.65;98.96
34696;BME280;75243;51.138;17.370;2024-02-28T05:35:09;100272.36;;;6.64;98.98
34696;BME280;75243;51.138;17.370;2024-02-28T05:38:11;100276.70;;;6.60;98.90
34696;BME280;75243;51.138;17.370;2024-02-28T05:41:12;100278.77;;;6.61;99.21
34696;BME280;75243;51.138;17.370;2024-02-28T05:44:13;100279.09;;;6.63;99.20
34696;BME280;75243;51.138;17.370;2024-02-28T05:47:14;100284.84;;;6.64;99.22
34696;BME280;75243;51.138;17.370;2024-02-28T05:50:14;100288.05;;;6.61;99.23
34696;BME280;75243;51.138;17.370;2024-02-28T05:53:16;100290.23;;;6.59;99.28
34696;BME280;75243;51.138;17.370;2024-02-28T05:56:16;100300.46;;;6.56;99.40
34696;BME280;75243;51.138;17.370;2024-02-28T05:59:20;100302.98;;;6.56;99.36
34696;BME280;75243;51.138;17.370;2024-02-28T06:02:20;100307.23;;;6.55;99.59
34696;BME280;75243;51.138;17.370;2024-02-28T06:05:21;100309.25;;;6.55;99.63
34696;BME280;75243;51.138;17.370;2024-02-28T06:08:21;100311.45;;;6.51;99.65
34696;BME280;75243;51.138;17.370;2024-02-28T06:11:22;100312.23;;;6.48;99.81
34696;BME280;75243;51.138;17.370;2024-02-28T06:14:22;100313.03;;;6.45;99.75
34696;BME280;75243;51.138;17.370;2024-02-28T06:17:23;100318.70;;;6.49;100.00
34696;BME280;75243;51.138;17.370;2024-02-28T06:20:24;100319.98;;;6.54;100.00
34696;BME280;75243;51.138;17.370;2024-02-28T06:23:31;100318.71;;;6.55;100.00
34696;BME280;75243;51.138;17.370;2024-02-28T06:26:31;100319.38;;;6.55;99.95
34696;BME280;75243;51.138;17.370;2024-02-28T06:29:34;100317.20;;;6.56;100.00
34696;BME280;75243;51.138;17.370;2024-02-28T06:32:35;100322.27;;;6.60;100.00
34696;BME280;75243;51.138;17.370;2024-02-28T06:35:35;100323.50;;;6.62;100.00
34696;BME280;75243;51.138;17.370;2024-02-28T06:38:36;100328.92;;;6.63;100.00
34696;BME280;75243;51.138;17.370;2024-02-28T06:41:37;100329.46;;;6.64;100.00
34696;BME280;75243;51.138;17.370;2024-02-28T06:44:40;100332.95;;;6.63;100.00
34696;BME280;75243;51.138;17.370;2024-02-28T06:47:42;100335.05;;;6.63;100.00
34696;BME280;75243;51.138;17.370;2024-02-28T06:50:45;100338.69;;;6.67;100.00
34696;BME280;75243;51.138;17.370;2024-02-28T06:53:46;100341.23;;;6.68;100.00
34696;BME280;75243;51.138;17.370;2024-02-28T06:56:47;100340.58;;;6.64;100.00
34696;BME280;75243;51.138;17.370;2024-02-28T06:59:47;100339.06;;;6.61;100.00
34696;BME280;75243;51.138;17.370;2024-02-28T07:02:53;100338.64;;;6.64;100.00
34696;BME280;75243;51.138;17.370;2024-02-28T07:05:54;100343.82;;;6.67;100.00
34696;BME280;75243;51.138;17.370;2024-02-28T07:08:55;100343.65;;;6.73;100.00
34696;BME280;75243;51.138;17.370;2024-02-28T07:11:58;100349.59;;;6.79;100.00
34696;BME280;75243;51.138;17.370;2024-02-28T07:15:04;100350.63;;;6.83;100.00
34696;BME280;75243;51.138;17.370;2024-02-28T07:18:05;100350.52;;;6.88;100.00
34696;BME280;75243;51.138;17.370;2024-02-28T07:21:05;100354.43;;;6.92;100.00
34696;BME280;75243;51.138;17.370;2024-02-28T07:24:07;100352.98;;;7.00;100.00
34696;BME280;75243;51.138;17.370;2024-02-28T07:27:07;100360.28;;;7.11;100.00
34696;BME280;75243;51.138;17.370;2024-02-28T07:30:08;100366.79;;;7.21;100.00
34696;BME280;75243;51.138;17.370;2024-02-28T07:33:12;100372.15;;;7.28;100.00
34696;BME280;75243;51.138;17.370;2024-02-28T07:36:13;100376.29;;;7.27;100.00
34696;BME280;75243;51.138;17.370;2024-02-28T07:39:13;100380.39;;;7.26;100.00
34696;BME280;75243;51.138;17.370;2024-02-28T07:42:16;100383.08;;;7.31;100.00
34696;BME280;75243;51.138;17.370;2024-02-28T07:45:17;100384.77;;;7.36;100.00
34696;BME280;75243;51.138;17.370;2024-02-28T07:48:18;100390.06;;;7.40;100.00
34696;BME280;75243;51.138;17.370;2024-02-28T07:51:20;100394.02;;;7.41;100.00
34696;BME280;75243;51.138;17.370;2024-02-28T07:54:20;100390.52;;;7.48;100.00
34696;BME280;75243;51.138;17.370;2024-02-28T07:57:21;100392.51;;;7.57;100.00
34696;BME280;75243;51.138;17.370;2024-02-28T08:00:22;100395.95;;;7.64;100.00
34696;BME280;75243;51.138;17.370;2024-02-28T08:03:26;100391.69;;;7.64;100.00
34696;BME280;75243;51.138;17.370;2024-02-28T08:06:26;100392.53;;;7.61;100.00
34696;BME280;75243;51.138;17.370;2024-02-28T08:09:28;100396.50;;;7.57;100.00
34696;BME280;75243;51.138;17.370;2024-02-28T08:12:28;100400.15;;;7.62;100.00
34696;BME280;75243;51.138;17.370;2024-02-28T08:15:29;100402.17;;;7.69;100.00
34696;BME280;75243;51.138;17.370;2024-02-28T08:18:35;100403.94;;;7.73;100.00
34696;BME280;75243;51.138;17.370;2024-02-28T08:21:38;100405.46;;;7.75;100.00
34696;BME280;75243;51.138;17.370;2024-02-28T08:24:38;100408.39;;;7.76;100.00
34696;BME280;75243;51.138;17.370;2024-02-28T08:27:41;100409.33;;;7.79;100.00
34696;BME280;75243;51.138;17.370;2024-02-28T08:30:42;100411.46;;;7.77;100.00
34696;BME280;75243;51.138;17.370;2024-02-28T08:33:45;100413.12;;;7.73;100.00
34696;BME280;75243;51.138;17.370;2024-02-28T08:36:46;100411.28;;;7.73;100.00
34696;BME280;75243;51.138;17.370;2024-02-28T08:39:46;100412.23;;;7.75;100.00
34696;BME280;75243;51.138;17.370;2024-02-28T08:42:47;100411.91;;;7.74;100.00
34696;BME280;75243;51.138;17.370;2024-02-28T08:45:48;100413.86;;;7.76;100.00
34696;BME280;75243;51.138;17.370;2024-02-28T08:48:51;100420.80;;;7.81;100.00
34696;BME280;75243;51.138;17.370;2024-02-28T08:51:52;100419.56;;;7.79;100.00
34696;BME280;75243;51.138;17.370;2024-02-28T08:54:55;100420.25;;;7.79;100.00
34696;BME280;75243;51.138;17.370;2024-02-28T08:57:56;100425.73;;;7.81;100.00
34696;BME280;75243;51.138;17.370;2024-02-28T09:00:57;100423.64;;;7.79;100.00
34696;BME280;75243;51.138;17.370;2024-02-28T09:03:57;100423.28;;;7.77;100.00
34696;BME280;75243;51.138;17.370;2024-02-28T09:06:58;100424.09;;;7.76;100.00
34696;BME280;75243;51.138;17.370;2024-02-28T09:09:58;100423.60;;;7.74;100.00
34696;BME280;75243;51.138;17.370;2024-02-28T09:12:59;100428.14;;;7.74;100.00
34696;BME280;75243;51.138;17.370;2024-02-28T09:16:03;100429.37;;;7.80;100.00
34696;BME280;75243;51.138;17.370;2024-02-28T09:19:04;100434.66;;;7.81;100.00
34696;BME280;75243;51.138;17.370;2024-02-28T09:22:04;100433.81;;;7.85;100.00
34696;BME280;75243;51.138;17.370;2024-02-28T09:25:06;100436.88;;;7.86;100.00
34696;BME280;75243;51.138;17.370;2024-02-28T09:28:09;100440.47;;;7.89;100.00
34696;BME280;75243;51.138;17.370;2024-02-28T09:31:13;100434.35;;;7.92;100.00
34696;BME280;75243;51.138;17.370;2024-02-28T09:34:15;100437.16;;;7.96;100.00
34696;BME280;75243;51.138;17.370;2024-02-28T09:37:16;100439.04;;;7.99;100.00
34696;BME280;75243;51.138;17.370;2024-02-28T09:40:17;100436.34;;;7.99;100.00
34696;BME280;75243;51.138;17.370;2024-02-28T09:43:31;100442.41;;;8.03;100.00
34696;BME280;75243;51.138;17.370;2024-02-28T09:46:35;100449.17;;;8.09;100.00
34696;BME280;75243;51.138;17.370;2024-02-28T09:49:35;100450.79;;;8.11;100.00
34696;BME280;75243;51.138;17.370;2024-02-28T09:52:39;100453.95;;;8.13;100.00
34696;BME280;75243;51.138;17.370;2024-02-28T09:55:42;100457.84;;;8.11;99.95
34696;BME280;75243;51.138;17.370;2024-02-28T09:58:48;100457.77;;;8.06;100.00
34696;BME280;75243;51.138;17.370;2024-02-28T10:01:56;100461.36;;;8.09;99.98
34696;BME280;75243;51.138;17.370;2024-02-28T10:04:57;100467.44;;;8.02;100.00
34696;BME280;75243;51.138;17.370;2024-02-28T10:08:07;100475.29;;;7.97;100.00
34696;BME280;75243;51.138;17.370;2024-02-28T10:11:16;100474.35;;;7.94;99.93
34696;BME280;75243;51.138;17.370;2024-02-28T10:14:25;100478.61;;;7.90;99.87
34696;BME280;75243;51.138;17.370;2024-02-28T10:17:26;100481.00;;;7.89;99.94
34696;BME280;75243;51.138;17.370;2024-02-28T10:20:33;100478.92;;;7.87;99.97
34696;BME280;75243;51.138;17.370;2024-02-28T10:23:37;100475.27;;;7.86;100.00
34696;BME280;75243;51.138;17.370;2024-02-28T10:26:49;100472.67;;;7.86;100.00
34696;BME280;75243;51.138;17.370;2024-02-28T10:29:55;100474.47;;;7.85;100.00
34696;BME280;75243;51.138;17.370;2024-02-28T10:32:56;100475.51;;;7.85;100.00
34696;BME280;75243;51.138;17.370;2024-02-28T10:35:56;100482.42;;;7.87;100.00
34696;BME280;75243;51.138;17.370;2024-02-28T10:38:57;100482.18;;;7.86;100.00
34696;BME280;75243;51.138;17.370;2024-02-28T10:42:02;100488.58;;;7.85;100.00
34696;BME280;75243;51.138;17.370;2024-02-28T10:45:06;100485.16;;;7.82;100.00
34696;BME280;75243;51.138;17.370;2024-02-28T10:48:16;100482.13;;;7.78;100.00
34696;BME280;75243;51.138;17.370;2024-02-28T10:51:23;100486.13;;;7.75;100.00
34696;BME280;75243;51.138;17.370;2024-02-28T10:54:31;100497.00;;;7.72;100.00
34696;BME280;75243;51.138;17.370;2024-02-28T10:57:36;100499.48;;;7.70;100.00
34696;BME280;75243;51.138;17.370;2024-02-28T11:00:41;100507.28;;;7.65;100.00
34696;BME280;75243;51.138;17.370;2024-02-28T11:03:42;100508.54;;;7.61;100.00
34696;BME280;75243;51.138;17.370;2024-02-28T11:06:51;100509.33;;;7.58;100.00
34696;BME280;75243;51.138;17.370;2024-02-28T11:10:09;100510.05;;;7.54;100.00
34696;BME280;75243;51.138;17.370;2024-02-28T11:13:31;100512.08;;;7.53;100.00
34696;BME280;75243;51.138;17.370;2024-02-28T11:16:34;100517.09;;;7.50;100.00
34696;BME280;75243;51.138;17.370;2024-02-28T11:19:44;100522.23;;;7.48;100.00
34696;BME280;75243;51.138;17.370;2024-02-28T11:22:45;100523.56;;;7.47;100.00
34696;BME280;75243;51.138;17.370;2024-02-28T11:25:46;100526.04;;;7.47;100.00
34696;BME280;75243;51.138;17.370;2024-02-28T11:28:47;100529.52;;;7.49;100.00
34696;BME280;75243;51.138;17.370;2024-02-28T11:31:49;100534.77;;;7.49;100.00
34696;BME280;75243;51.138;17.370;2024-02-28T11:34:53;100529.77;;;7.46;100.00
34696;BME280;75243;51.138;17.370;2024-02-28T11:37:56;100536.98;;;7.42;100.00
34696;BME280;75243;51.138;17.370;2024-02-28T11:41:00;100544.50;;;7.37;100.00
34696;BME280;75243;51.138;17.370;2024-02-28T11:44:03;100546.25;;;7.31;100.00
34696;BME280;75243;51.138;17.370;2024-02-28T11:47:04;100548.19;;;7.25;100.00
34696;BME280;75243;51.138;17.370;2024-02-28T11:50:05;100551.15;;;7.19;100.00
34696;BME280;75243;51.138;17.370;2024-02-28T11:53:09;100550.81;;;7.21;100.00
34696;BME280;75243;51.138;17.370;2024-02-28T11:56:13;100545.75;;;7.27;100.00
34696;BME280;75243;51.138;17.370;2024-02-28T11:59:17;100545.29;;;7.30;100.00
34696;BME280;75243;51.138;17.370;2024-02-28T12:02:18;100544.80;;;7.31;100.00
34696;BME280;75243;51.138;17.370;2024-02-28T12:05:22;100547.41;;;7.34;100.00
34696;BME280;75243;51.138;17.370;2024-02-28T12:08:22;100545.39;;;7.39;100.00
34696;BME280;75243;51.138;17.370;2024-02-28T12:11:26;100552.77;;;7.43;100.00
34696;BME280;75243;51.138;17.370;2024-02-28T12:14:31;100549.16;;;7.42;100.00
34696;BME280;75243;51.138;17.370;2024-02-28T12:17:32;100551.61;;;7.38;100.00
34696;BME280;75243;51.138;17.370;2024-02-28T12:20:32;100549.73;;;7.35;100.00
34696;BME280;75243;51.138;17.370;2024-02-28T12:23:33;100553.21;;;7.34;100.00
34696;BME280;75243;51.138;17.370;2024-02-28T12:26:33;100554.02;;;7.32;100.00
34696;BME280;75243;51.138;17.370;2024-02-28T12:29:34;100553.80;;;7.33;100.00
34696;BME280;75243;51.138;17.370;2024-02-28T12:32:34;100556.78;;;7.31;100.00
34696;BME280;75243;51.138;17.370;2024-02-28T12:35:40;100557.64;;;7.28;100.00
34696;BME280;75243;51.138;17.370;2024-02-28T12:38:42;100556.08;;;7.25;100.00
34696;BME280;75243;51.138;17.370;2024-02-28T12:41:42;100557.10;;;7.24;100.00
34696;BME280;75243;51.138;17.370;2024-02-28T12:44:43;100554.45;;;7.17;100.00
34696;BME280;75243;51.138;17.370;2024-02-28T12:47:46;100556.61;;;7.13;100.00
34696;BME280;75243;51.138;17.370;2024-02-28T12:50:49;100558.19;;;7.13;100.00
34696;BME280;75243;51.138;17.370;2024-02-28T12:53:52;100565.73;;;7.13;100.00
34696;BME280;75243;51.138;17.370;2024-02-28T12:56:53;100562.27;;;7.13;100.00
34696;BME280;75243;51.138;17.370;2024-02-28T12:59:53;100565.14;;;7.12;100.00
34696;BME280;75243;51.138;17.370;2024-02-28T13:02:54;100571.48;;;7.14;100.00
34696;BME280;75243;51.138;17.370;2024-02-28T13:05:55;100572.31;;;7.10;100.00
34696;BME280;75243;51.138;17.370;2024-02-28T13:08:58;100570.36;;;7.09;100.00
34696;BME280;75243;51.138;17.370;2024-02-28T13:11:59;100571.93;;;7.08;100.00
34696;BME280;75243;51.138;17.370;2024-02-28T13:14:59;100571.66;;;7.06;100.00
34696;BME280;75243;51.138;17.370;2024-02-28T13:18:00;100573.02;;;7.00;100.00
34696;BME280;75243;51.138;17.370;2024-02-28T13:21:02;100574.39;;;6.97;100.00
34696;BME280;75243;51.138;17.370;2024-02-28T13:24:05;100576.92;;;6.93;100.00
34696;BME280;75243;51.138;17.370;2024-02-28T13:27:06;100577.61;;;6.90;100.00
34696;BME280;75243;51.138;17.370;2024-02-28T13:30:07;100580.84;;;6.85;100.00
34696;BME280;75243;51.138;17.370;2024-02-28T13:33:10;100584.38;;;6.81;100.00
34696;BME280;75243;51.138;17.370;2024-02-28T13:36:16;100591.96;;;6.72;100.00
34696;BME280;75243;51.138;17.370;2024-02-28T13:39:19;100595.20;;;6.65;100.00
34696;BME280;75243;51.138;17.370;2024-02-28T13:42:22;100594.85;;;6.59;100.00
34696;BME280;75243;51.138;17.370;2024-02-28T13:45:24;100595.64;;;6.54;100.00
34696;BME280;75243;51.138;17.370;2024-02-28T13:48:28;100593.24;;;6.50;100.00
34696;BME280;75243;51.138;17.370;2024-02-28T13:51:29;100593.84;;;6.50;100.00
34696;BME280;75243;51.138;17.370;2024-02-28T13:54:29;100590.76;;;6.49;100.00
34696;BME280;75243;51.138;17.370;2024-02-28T13:57:30;100590.31;;;6.44;100.00
34696;BME280;75243;51.138;17.370;2024-02-28T14:00:30;100593.11;;;6.40;100.00
34696;BME280;75243;51.138;17.370;2024-02-28T14:03:31;100594.14;;;6.38;100.00
34696;BME280;75243;51.138;17.370;2024-02-28T14:06:35;100599.58;;;6.36;100.00
34696;BME280;75243;51.138;17.370;2024-02-28T14:09:41;100598.08;;;6.35;100.00
34696;BME280;75243;51.138;17.370;2024-02-28T14:12:41;100602.03;;;6.32;100.00
34696;BME280;75243;51.138;17.370;2024-02-28T14:15:42;100604.22;;;6.29;100.00
34696;BME280;75243;51.138;17.370;2024-02-28T14:18:42;100611.07;;;6.28;100.00
34696;BME280;75243;51.138;17.370;2024-02-28T14:21:43;100613.01;;;6.28;100.00
34696;BME280;75243;51.138;17.370;2024-02-28T14:24:44;100616.95;;;6.28;100.00
34696;BME280;75243;51.138;17.370;2024-02-28T14:27:45;100624.08;;;6.24;100.00
34696;BME280;75243;51.138;17.370;2024-02-28T14:30:45;100629.30;;;6.20;100.00
34696;BME280;75243;51.138;17.370;2024-02-28T14:33:49;100628.36;;;6.17;100.00
34696;BME280;75243;51.138;17.370;2024-02-28T14:36:50;100633.79;;;6.15;100.00
34696;BME280;75243;51.138;17.370;2024-02-28T14:39:51;100636.48;;;6.16;100.00
34696;BME280;75243;51.138;17.370;2024-02-28T14:42:51;100639.33;;;6.18;100.00
34696;BME280;75243;51.138;17.370;2024-02-28T14:45:53;100642.33;;;6.18;100.00
34696;BME280;75243;51.138;17.370;2024-02-28T14:48:54;100638.75;;;6.19;100.00
34696;BME280;75243;51.138;17.370;2024-02-28T14:51:54;100643.55;;;6.20;100.00
34696;BME280;75243;51.138;17.370;2024-02-28T14:54:56;100641.71;;;6.24;100.00
34696;BME280;75243;51.138;17.370;2024-02-28T14:57:56;100645.77;;;6.23;100.00
34696;BME280;75243;51.138;17.370;2024-02-28T15:00:57;100646.59;;;6.24;100.00
34696;BME280;75243;51.138;17.370;2024-02-28T15:04:01;100652.40;;;6.19;100.00
34696;BME280;75243;51.138;17.370;2024-02-28T15:07:02;100658.00;;;6.15;100.00
34696;BME280;75243;51.138;17.370;2024-02-28T15:10:06;100655.30;;;6.08;100.00
34696;BME280;75243;51.138;17.370;2024-02-28T15:13:07;100659.33;;;6.06;100.00
34696;BME280;75243;51.138;17.370;2024-02-28T15:16:08;100659.13;;;5.99;100.00
34696;BME280;75243;51.138;17.370;2024-02-28T15:19:08;100663.20;;;5.97;100.00
34696;BME280;75243;51.138;17.370;2024-02-28T15:22:09;100665.52;;;5.94;100.00
34696;BME280;75243;51.138;17.370;2024-02-28T15:25:12;100672.65;;;5.93;100.00
34696;BME280;75243;51.138;17.370;2024-02-28T15:28:13;100675.05;;;5.91;100.00
34696;BME280;75243;51.138;17.370;2024-02-28T15:31:16;100676.43;;;5.92;100.00
34696;BME280;75243;51.138;17.370;2024-02-28T15:34:17;100675.39;;;5.94;100.00
34696;BME280;75243;51.138;17.370;2024-02-28T15:37:17;100679.14;;;5.95;100.00
34696;BME280;75243;51.138;17.370;2024-02-28T15:40:18;100676.70;;;5.99;100.00
34696;BME280;75243;51.138;17.370;2024-02-28T15:43:24;100677.60;;;6.05;100.00